Time;durP1;ratioP1;P1;durP2;ratioP2;P2;SDS_P1;SDS_P2;PMS_P1;PMS_P2;Temp;Humidity;BMP_temperature;BMP_pressure;BME280_temperature;BME280_humidity;BME280_pressure;Samples;Min_cycle;Max_cycle;Signal;HPM_P1;HPM_P2
2022/04/17 00:00:14;;;;;;;;;4.00;4.00;;;;;16.07;36.33;101805.59;5076206;28;45445;-64
2022/04/17 00:02:39;;;;;;;;;4.00;4.00;;;;;16.06;37.01;101806.50;5076784;28;45500;-63
2022/04/17 00:05:06;;;;;;;;;4.33;4.00;;;;;16.06;35.82;101801.19;5076442;27;45432;-65
2022/04/17 00:07:31;;;;;;;;;6.00;4.67;;;;;16.02;36.28;101802.25;5076405;28;46965;-65
2022/04/17 00:09:58;;;;;;;;;8.00;5.00;;;;;16.01;36.63;101799.63;5075135;27;45478;-63
2022/04/17 00:12:24;;;;;;;;;4.67;4.67;;;;;16.00;36.20;101793.47;5076577;28;45480;-65
2022/04/17 00:14:50;;;;;;;;;3.67;3.67;;;;;15.99;36.31;101797.06;5076436;28;45546;-62
2022/04/17 00:17:16;;;;;;;;;5.00;5.00;;;;;15.93;35.72;101778.69;5076081;27;46002;-63
2022/04/17 00:19:42;;;;;;;;;5.00;4.67;;;;;15.97;36.85;101801.56;5076278;28;45495;-64
2022/04/17 00:22:07;;;;;;;;;3.00;3.00;;;;;15.92;35.76;101789.38;5076125;28;46232;-62
2022/04/17 00:24:33;;;;;;;;;3.00;3.00;;;;;15.87;35.84;101787.75;5076395;28;45591;-66
2022/04/17 00:27:00;;;;;;;;;5.00;5.00;;;;;15.80;35.88;101791.59;5076120;28;46300;-66
2022/04/17 00:29:26;;;;;;;;;6.00;5.00;;;;;15.77;36.25;101783.75;5076214;27;45449;-64
2022/04/17 00:31:52;;;;;;;;;5.33;5.33;;;;;15.73;36.03;101778.63;5075995;27;45325;-65
2022/04/17 00:34:19;;;;;;;;;4.00;4.00;;;;;15.72;36.78;101784.88;5076075;27;45687;-63
2022/04/17 00:36:45;;;;;;;;;4.33;4.33;;;;;15.69;35.79;101775.22;5075967;28;45504;-62
2022/04/17 00:39:10;;;;;;;;;4.33;4.33;;;;;15.66;36.76;101786.78;5075778;28;45462;-62
2022/04/17 00:41:35;;;;;;;;;4.67;4.67;;;;;15.62;36.56;101782.50;5075992;28;45425;-63
2022/04/17 00:44:01;;;;;;;;;8.33;6.00;;;;;15.58;36.38;101778.25;5075954;28;45520;-63
2022/04/17 00:46:26;;;;;;;;;5.00;5.00;;;;;15.58;36.71;101778.25;5075667;28;46187;-62
2022/04/17 00:48:51;;;;;;;;;7.00;7.00;;;;;15.57;36.30;101788.91;5075586;27;45312;-62
2022/04/17 00:51:17;;;;;;;;;7.00;5.00;;;;;15.52;36.38;101770.50;5075380;28;49438;-64
2022/04/17 00:53:45;;;;;;;;;5.67;5.33;;;;;15.51;37.01;101776.75;5075912;28;45560;-65
2022/04/17 00:56:11;;;;;;;;;6.00;6.00;;;;;15.42;36.79;101762.03;5075552;28;45471;-65
2022/04/17 00:58:38;;;;;;;;;5.33;5.33;;;;;15.53;37.17;101769.59;5075467;28;45512;-62
2022/04/17 01:01:04;;;;;;;;;5.67;5.33;;;;;15.46;36.04;101763.66;5075694;28;45482;-64
2022/04/17 01:03:30;;;;;;;;;5.00;5.00;;;;;15.55;35.78;101764.22;5074344;28;45586;-64
2022/04/17 01:05:55;;;;;;;;;6.00;5.00;;;;;15.57;36.75;101771.19;5075325;28;45477;-66
2022/04/17 01:08:21;;;;;;;;;5.67;4.00;;;;;15.54;36.26;101762.50;5075595;28;45782;-63
2022/04/17 01:10:47;;;;;;;;;6.33;6.33;;;;;15.61;36.86;101762.22;5075449;28;45487;-63
2022/04/17 01:13:12;;;;;;;;;5.00;5.00;;;;;15.58;36.02;101761.44;5075527;28;45663;-64
2022/04/17 01:15:38;;;;;;;;;4.33;4.33;;;;;15.49;36.71;101754.72;5075317;28;45636;-65
2022/04/17 01:18:04;;;;;;;;;6.00;6.00;;;;;15.48;35.73;101758.31;5075391;28;45479;-65
2022/04/17 01:20:30;;;;;;;;;5.00;5.00;;;;;15.45;35.70;101758.41;5074545;28;45411;-62
2022/04/17 01:26:56;;;;;;;;;4.67;4.00;;;;;15.43;35.58;101755.81;5075122;27;45626;-65
2022/04/17 01:28:27;;;;;;;;;5.67;5.67;;;;;15.39;36.09;101748.03;5075107;28;45394;-61
2022/04/17 01:30:53;;;;;;;;;4.00;4.00;;;;;15.33;35.07;101749.13;5075265;27;45436;-64
2022/04/17 01:33:19;;;;;;;;;3.00;3.00;;;;;15.30;34.84;101751.88;5075244;27;45577;-62
2022/04/17 01:35:44;;;;;;;;;4.67;4.67;;;;;15.31;35.47;101742.13;5074933;28;45444;-61
2022/04/17 01:38:10;;;;;;;;;4.67;4.67;;;;;15.27;35.32;101737.88;5075203;28;45402;-61
2022/04/17 01:40:35;;;;;;;;;5.33;5.33;;;;;15.24;35.70;101739.72;5075188;28;45449;-64
2022/04/17 01:43:00;;;;;;;;;4.67;4.67;;;;;15.19;35.28;101736.38;5075381;28;45362;-63
2022/04/17 01:45:26;;;;;;;;;8.00;6.00;;;;;15.19;34.67;101735.50;5075026;28;46864;-64
2022/04/17 01:47:51;;;;;;;;;4.67;4.67;;;;;15.13;35.20;101727.78;5073797;28;45553;-67
2022/04/17 01:50:16;;;;;;;;;5.00;5.00;;;;;15.04;35.08;101728.97;5075286;28;45370;-65
2022/04/17 01:52:42;;;;;;;;;4.00;4.00;;;;;14.99;34.97;101729.16;5075072;28;45356;-62
2022/04/17 01:55:09;;;;;;;;;7.00;5.33;;;;;14.99;34.76;101733.56;5074957;28;46886;-63
2022/04/17 01:57:34;;;;;;;;;3.00;3.00;;;;;14.99;35.55;101734.44;5074482;27;45439;-66
2022/04/17 01:59:59;;;;;;;;;7.00;6.00;;;;;14.97;34.64;101736.28;5074711;28;45398;-64
2022/04/17 02:02:25;;;;;;;;;3.00;3.00;;;;;14.96;35.59;101741.63;5075101;28;45460;-64
2022/04/17 02:04:50;;;;;;;;;5.67;5.67;;;;;14.92;35.17;101732.94;5073397;28;46991;-63
2022/04/17 02:07:16;;;;;;;;;5.67;5.67;;;;;14.91;34.92;101740.91;5075056;28;45433;-64
2022/04/17 02:09:41;;;;;;;;;5.00;2.00;;;;;14.83;34.97;101737.66;5074948;28;45429;-63
2022/04/17 02:12:07;;;;;;;;;4.00;4.00;;;;;14.75;34.61;101730.03;5073479;28;45701;-64
2022/04/17 02:14:32;;;;;;;;;4.00;4.00;;;;;14.73;35.47;101724.75;5073154;28;45487;-65
2022/04/17 02:16:57;;;;;;;;;4.67;4.00;;;;;14.77;35.57;101730.81;5074372;28;53741;-64
2022/04/17 02:19:23;;;;;;;;;4.67;4.67;;;;;14.75;35.05;101722.06;5074737;28;45422;-65
2022/04/17 02:21:48;;;;;;;;;5.33;5.33;;;;;14.76;35.42;101722.00;5074603;28;45496;-63
2022/04/17 02:24:14;;;;;;;;;6.33;5.33;;;;;14.73;35.07;101723.91;5074544;28;45451;-65
2022/04/17 02:26:39;;;;;;;;;3.33;3.33;;;;;14.70;35.04;101724.00;5074511;28;45388;-63
2022/04/17 02:29:05;;;;;;;;;4.33;4.33;;;;;14.67;35.13;101718.78;5074538;28;45413;-63
2022/04/17 02:31:31;;;;;;;;;2.67;2.67;;;;;14.62;34.93;101721.63;5074720;28;45593;-63
2022/04/17 02:33:57;;;;;;;;;4.00;4.00;;;;;14.57;34.83;101715.63;5077701;27;45490;-65
2022/04/17 02:36:23;;;;;;;;;3.33;3.33;;;;;14.50;34.39;101714.06;5075970;28;45418;-62
2022/04/17 02:38:48;;;;;;;;;7.00;4.00;;;;;14.44;35.07;101706.31;5077907;27;45326;-63
2022/04/17 02:41:14;;;;;;;;;4.33;4.33;;;;;14.42;35.62;101694.91;5077874;28;45417;-62
2022/04/17 02:43:39;;;;;;;;;4.33;3.00;;;;;14.52;34.63;101701.63;5077897;28;46169;-64
2022/04/17 02:46:04;;;;;;;;;3.33;3.33;;;;;14.50;34.56;101700.81;5077721;28;45416;-63
2022/04/17 02:48:31;;;;;;;;;5.00;5.00;;;;;14.46;34.95;101696.56;5077713;28;45322;-62
2022/04/17 02:50:57;;;;;;;;;4.00;4.00;;;;;14.45;34.91;101708.03;5077888;28;45429;-64
2022/04/17 02:53:24;;;;;;;;;5.67;5.67;;;;;14.42;35.02;101701.06;5077259;28;46159;-64
2022/04/17 02:55:49;;;;;;;;;8.33;5.67;;;;;14.40;35.11;101708.22;5077454;28;45448;-65
2022/04/17 02:58:15;;;;;;;;;5.33;4.00;;;;;14.38;34.83;101706.53;5077463;27;45446;-63
2022/04/17 03:06:10;;;;;;;;;5.33;4.67;;;;;14.34;34.63;101690.75;5077439;28;45458;-65
2022/04/17 03:08:38;;;;;;;;;4.33;4.00;;;;;14.28;35.32;101680.38;5077326;27;45453;-65
2022/04/17 03:11:03;;;;;;;;;5.67;4.33;;;;;14.29;35.01;101684.75;5076067;28;45730;-62
2022/04/17 03:13:29;;;;;;;;;6.33;6.33;;;;;14.30;34.82;101694.41;5077224;27;45540;-64
2022/04/17 03:15:54;;;;;;;;;5.67;5.67;;;;;14.32;34.95;101691.75;5077239;28;45403;-65
2022/04/17 03:18:20;;;;;;;;;4.67;4.67;;;;;14.26;34.42;101683.97;5077434;28;45432;-65
2022/04/17 03:20:46;;;;;;;;;4.00;4.00;;;;;14.29;35.25;101686.53;5077085;28;45616;-64
2022/04/17 03:23:12;;;;;;;;;5.33;5.33;;;;;14.13;35.01;101662.34;5075711;28;47578;-62
2022/04/17 03:25:39;;;;;;;;;6.33;6.33;;;;;14.24;35.11;101680.50;5076843;28;45468;-65
2022/04/17 03:28:05;;;;;;;;;4.00;4.00;;;;;14.21;34.81;101676.22;5076941;28;45472;-65
2022/04/17 03:30:30;;;;;;;;;5.00;5.00;;;;;14.18;35.23;101676.28;5076954;27;45546;-64
2022/04/17 03:32:57;;;;;;;;;5.33;5.00;;;;;14.23;35.10;101676.16;5077124;28;45421;-63
2022/04/17 03:35:23;;;;;;;;;5.00;4.00;;;;;14.23;34.91;101678.78;5076923;28;45456;-66
2022/04/17 03:37:48;;;;;;;;;4.00;4.00;;;;;14.17;34.72;101668.41;5075693;28;45466;-64
2022/04/17 03:40:16;;;;;;;;;7.00;5.00;;;;;14.15;35.01;101671.09;5077146;27;45627;-64
2022/04/17 03:42:42;;;;;;;;;3.33;3.33;;;;;14.12;35.30;101672.06;5076508;28;45529;-64
2022/04/17 03:45:11;;;;;;;;;4.00;4.00;;;;;14.11;34.93;101670.34;5076756;28;45503;-66
2022/04/17 03:47:38;;;;;;;;;3.33;3.33;;;;;14.07;34.40;101667.84;5075856;28;45473;-65
2022/04/17 03:50:04;;;;;;;;;4.00;4.00;;;;;14.03;34.83;101674.16;5076710;28;45320;-62
2022/04/17 03:52:44;;;;;;;;;5.33;4.33;;;;;14.02;34.91;101673.28;5076621;28;45424;-63
2022/04/17 03:55:11;;;;;;;;;8.00;5.00;;;;;14.01;35.00;101674.22;5076586;28;45349;-65
2022/04/17 03:57:37;;;;;;;;;4.00;4.00;;;;;14.00;35.05;101666.34;5076694;28;45480;-64
2022/04/17 04:00:06;;;;;;;;;4.67;4.67;;;;;14.00;34.59;101674.28;5076248;27;45544;-64
2022/04/17 04:02:31;;;;;;;;;6.33;5.33;;;;;13.94;34.53;101672.66;5076284;28;46414;-65
2022/04/17 04:04:57;;;;;;;;;6.00;6.00;;;;;13.86;34.45;101657.06;5076471;28;45562;-62
2022/04/17 04:07:23;;;;;;;;;4.00;4.00;;;;;13.87;34.43;101665.88;5076621;28;45545;-61
2022/04/17 04:09:48;;;;;;;;;4.67;4.67;;;;;13.76;34.99;101652.97;5076428;28;45655;-66
2022/04/17 04:12:14;;;;;;;;;5.00;5.00;;;;;13.75;34.76;101656.53;5076796;28;46028;-65
2022/04/17 04:14:40;;;;;;;;;6.00;6.00;;;;;13.71;34.82;101652.25;5076440;28;45539;-65
2022/04/17 04:17:05;;;;;;;;;3.67;3.67;;;;;13.64;34.65;101654.22;5076251;28;45505;-65
2022/04/17 04:19:31;;;;;;;;;5.00;5.00;;;;;13.59;34.51;101653.50;5076212;28;45350;-65
2022/04/17 04:21:56;;;;;;;;;7.00;5.00;;;;;13.58;34.66;101653.56;5075954;28;45533;-64
2022/04/17 04:24:24;;;;;;;;;4.00;4.00;;;;;13.60;34.84;101651.72;5076077;28;45403;-65
2022/04/17 04:28:33;;;;;;;;;3.33;3.33;;;;;13.55;35.13;101654.50;5076402;28;45437;-63
2022/04/17 04:29:37;;;;;;;;;7.67;5.00;;;;;13.48;34.71;101648.53;5075564;27;45634;-63
2022/04/17 04:32:03;;;;;;;;;5.33;5.33;;;;;13.46;34.85;101649.53;5075639;28;46254;-63
2022/04/17 04:34:29;;;;;;;;;5.00;5.00;;;;;13.43;34.99;101652.22;5075705;28;45552;-63
2022/04/17 04:36:54;;;;;;;;;7.00;6.00;;;;;13.40;35.05;101647.91;5075845;28;45440;-64
2022/04/17 04:39:20;;;;;;;;;5.00;5.00;;;;;13.41;34.99;101644.38;5075658;28;45431;-63
2022/04/17 04:41:45;;;;;;;;;5.00;5.00;;;;;13.42;35.09;101651.38;5075699;28;46710;-62
2022/04/17 04:44:11;;;;;;;;;5.00;4.67;;;;;13.44;34.97;101648.69;5075692;28;45598;-64
2022/04/17 04:46:38;;;;;;;;;5.00;5.00;;;;;13.43;35.26;101652.22;5075854;28;45396;-66
2022/04/17 04:51:47;;;;;;;;;6.00;6.00;;;;;13.42;35.43;101653.16;5075532;28;45428;-65
2022/04/17 04:54:12;;;;;;;;;5.00;5.00;;;;;13.39;34.60;101656.75;5074893;28;53504;-65
2022/04/17 04:56:37;;;;;;;;;4.00;4.00;;;;;13.40;35.26;101649.69;5075610;28;45376;-66
2022/04/17 04:59:04;;;;;;;;;5.33;5.33;;;;;13.42;34.87;101661.94;5075603;28;45540;-62
2022/04/17 05:01:29;;;;;;;;;4.67;4.67;;;;;13.43;35.42;101660.16;5075010;28;46186;-63
2022/04/17 05:03:55;;;;;;;;;6.00;6.00;;;;;13.38;34.75;101649.75;5075438;28;45431;-63
2022/04/17 05:06:20;;;;;;;;;5.33;5.33;;;;;13.42;34.84;101650.50;5074345;28;45435;-66
2022/04/17 05:08:45;;;;;;;;;6.67;6.67;;;;;13.42;35.66;101658.44;5075668;28;45468;-65
2022/04/17 05:11:11;;;;;;;;;5.00;5.00;;;;;13.41;35.28;101654.06;5075297;28;45497;-62
2022/04/17 05:13:36;;;;;;;;;6.67;6.67;;;;;13.41;34.74;101662.00;5075439;28;45355;-64
2022/04/17 05:16:02;;;;;;;;;5.00;5.00;;;;;13.38;34.61;101662.06;5075578;28;45497;-64
2022/04/17 05:18:27;;;;;;;;;8.00;8.00;;;;;13.41;35.42;101670.78;5063349;28;45420;-69
2022/04/17 05:20:55;;;;;;;;;3.00;3.00;;;;;13.41;34.93;101660.22;5092895;27;46164;-66
2022/04/17 05:23:27;;;;;;;;;5.33;5.33;;;;;13.39;35.56;101669.97;5095402;27;45634;-67
2022/04/17 05:25:55;;;;;;;;;6.00;4.00;;;;;13.47;35.59;101677.66;5084567;27;45405;-61
2022/04/17 05:28:21;;;;;;;;;3.33;3.33;;;;;13.52;35.22;101673.09;5054932;28;45631;-62
2022/04/17 05:30:46;;;;;;;;;4.00;4.00;;;;;13.57;35.14;101683.56;5054639;28;45932;-61
2022/04/17 05:33:12;;;;;;;;;5.00;5.00;;;;;13.60;35.13;101672.88;5058388;28;45539;-62
2022/04/17 05:35:38;;;;;;;;;5.67;5.67;;;;;13.55;34.94;101669.50;5054963;28;45410;-60
2022/04/17 05:38:04;;;;;;;;;14.33;12.00;;;;;13.54;34.72;101680.97;5054649;28;45575;-60
2022/04/17 05:40:35;;;;;;;;;24.00;23.00;;;;;13.58;34.85;101678.19;5054603;28;46078;-60
2022/04/17 05:43:00;;;;;;;;;33.67;29.67;;;;;13.61;34.77;101675.47;5054674;28;45453;-61
2022/04/17 05:45:26;;;;;;;;;20.67;19.33;;;;;13.62;34.68;101674.56;5054703;28;45470;-60
2022/04/17 05:47:52;;;;;;;;;6.00;6.00;;;;;13.55;34.25;101677.44;5063437;28;45524;-60
2022/04/17 05:50:18;;;;;;;;;6.00;6.00;;;;;13.54;34.82;101680.97;5074769;27;46043;-62
2022/04/17 05:52:43;;;;;;;;;7.00;6.00;;;;;13.58;34.54;101677.34;5075023;27;45420;-61
2022/04/17 05:55:12;;;;;;;;;8.00;7.00;;;;;13.59;34.67;101674.63;5075157;27;45338;-61
2022/04/17 05:57:37;;;;;;;;;6.00;6.00;;;;;13.56;34.44;101674.72;5075130;27;45489;-62
2022/04/17 06:00:08;;;;;;;;;4.67;4.00;;;;;13.53;34.39;101676.63;5072021;27;46096;-61
2022/04/17 06:02:38;;;;;;;;;5.00;5.00;;;;;13.42;34.39;101667.22;5069090;27;45481;-65
2022/04/17 06:05:04;;;;;;;;;4.00;4.00;;;;;13.45;34.72;101680.34;5095284;27;45457;-65
2022/04/17 06:07:30;;;;;;;;;8.00;5.67;;;;;13.48;34.22;101672.31;5082129;27;45405;-66
2022/04/17 06:09:55;;;;;;;;;5.33;4.00;;;;;13.56;34.33;101687.94;5058291;27;46113;-65
2022/04/17 06:12:21;;;;;;;;;4.00;4.00;;;;;13.51;34.16;101681.06;5061572;28;45525;-59
2022/04/17 06:14:46;;;;;;;;;5.00;5.00;;;;;13.50;34.58;101682.84;5061385;28;45497;-58
2022/04/17 06:17:12;;;;;;;;;13.67;11.33;;;;;13.52;34.02;101685.47;5095051;27;45367;-58
2022/04/17 06:19:37;;;;;;;;;8.33;7.33;;;;;13.52;34.18;101688.97;5098372;27;45482;-65
2022/04/17 06:22:04;;;;;;;;;9.33;9.33;;;;;13.52;33.88;101685.47;5097305;27;45501;-66
2022/04/17 06:24:29;;;;;;;;;14.67;14.67;;;;;13.49;34.33;101694.34;5078315;27;45428;-65
2022/04/17 06:26:55;;;;;;;;;10.67;8.00;;;;;13.44;33.87;101688.34;5078063;27;45576;-65
2022/04/17 06:29:20;;;;;;;;;7.33;7.33;;;;;13.37;33.78;101678.84;5076502;28;47085;-61
2022/04/17 06:31:45;;;;;;;;;5.00;4.33;;;;;13.37;34.13;101676.22;5077694;27;45415;-62
2022/04/17 06:34:12;;;;;;;;;5.00;5.00;;;;;13.39;33.97;101684.97;5077440;27;45666;-59
2022/04/17 06:36:38;;;;;;;;;6.00;6.00;;;;;13.40;34.11;101678.75;5077647;27;45623;-62
2022/04/17 06:39:04;;;;;;;;;4.67;4.67;;;;;13.44;34.35;101675.97;5077504;28;45399;-59
2022/04/17 06:41:29;;;;;;;;;7.33;7.00;;;;;13.54;34.22;101683.63;5071011;27;45419;-62
2022/04/17 06:43:54;;;;;;;;;5.00;5.00;;;;;13.60;34.03;101680.81;5079212;27;45488;-62
2022/04/17 06:46:20;;;;;;;;;4.00;4.00;;;;;13.59;33.36;101679.91;5098071;27;45408;-62
2022/04/17 06:48:45;;;;;;;;;6.67;6.67;;;;;13.60;33.87;101675.53;5080179;27;46137;-61
2022/04/17 06:51:10;;;;;;;;;5.00;5.00;;;;;13.64;33.73;101675.34;5077367;27;45549;-64
2022/04/17 06:53:36;;;;;;;;;7.00;4.67;;;;;13.70;33.87;101676.94;5095136;27;49615;-63
2022/04/17 06:56:01;;;;;;;;;11.33;8.00;;;;;13.74;33.54;101675.09;5079832;27;45486;-62
2022/04/17 06:58:26;;;;;;;;;7.00;6.00;;;;;13.66;33.94;101662.97;5064385;27;45556;-61
2022/04/17 07:00:51;;;;;;;;;7.67;7.67;;;;;13.73;33.97;101668.06;5070033;28;45574;-62
2022/04/17 07:03:17;;;;;;;;;6.00;6.00;;;;;13.76;33.79;101668.84;5077324;27;45424;-62
2022/04/17 07:05:43;;;;;;;;;7.33;6.00;;;;;13.75;33.80;101656.53;5057824;27;45489;-62
2022/04/17 07:08:09;;;;;;;;;6.67;5.67;;;;;13.77;33.79;101660.00;5056627;28;46624;-63
2022/04/17 07:10:37;;;;;;;;;4.00;4.00;;;;;13.79;34.01;101654.66;5056575;28;45402;-61
2022/04/17 07:13:04;;;;;;;;;6.00;6.00;;;;;13.79;33.74;101649.38;5056814;28;45457;-62
2022/04/17 07:15:29;;;;;;;;;7.00;5.33;;;;;13.75;33.87;101647.72;5056766;28;45545;-62
2022/04/17 07:17:55;;;;;;;;;6.67;6.67;;;;;13.73;34.34;101637.22;5074512;28;46162;-62
2022/04/17 07:20:21;;;;;;;;;5.67;5.67;;;;;13.79;33.93;101644.09;5074853;27;45749;-61
2022/04/17 07:22:47;;;;;;;;;4.67;4.00;;;;;13.81;34.21;101640.47;5065320;27;45552;-62
2022/04/17 07:25:14;;;;;;;;;6.67;6.67;;;;;13.84;33.98;101642.16;5097057;27;45327;-61
2022/04/17 07:27:42;;;;;;;;;5.33;5.33;;;;;13.88;33.75;101643.78;5096947;27;46061;-62
2022/04/17 07:30:12;;;;;;;;;5.67;5.67;;;;;13.92;33.23;101638.34;5082966;27;45455;-62
2022/04/17 07:32:38;;;;;;;;;5.67;5.67;;;;;13.94;33.80;101638.28;5058018;28;45449;-63
2022/04/17 07:35:04;;;;;;;;;6.00;6.00;;;;;13.98;34.01;101639.94;5086122;27;45556;-62
2022/04/17 07:37:32;;;;;;;;;6.33;6.33;;;;;14.00;33.50;101632.81;5092198;27;45555;-61
2022/04/17 07:39:57;;;;;;;;;6.00;6.00;;;;;13.98;33.33;101621.41;5059736;28;45708;-62
2022/04/17 07:42:23;;;;;;;;;5.00;4.00;;;;;14.01;33.37;101626.59;5088428;27;45537;-62
2022/04/17 07:44:48;;;;;;;;;6.00;6.00;;;;;14.04;33.82;101628.28;5096154;27;45406;-60
2022/04/17 07:47:14;;;;;;;;;8.67;8.67;;;;;14.06;33.20;101624.66;5072297;27;45541;-60
2022/04/17 07:49:40;;;;;;;;;7.67;6.33;;;;;14.06;33.53;101621.16;5094578;27;45424;-60
2022/04/17 07:52:06;;;;;;;;;6.00;6.00;;;;;14.11;33.73;101617.44;5066837;27;45477;-62
2022/04/17 07:54:31;;;;;;;;;7.00;7.00;;;;;14.17;33.66;101619.00;5095528;27;45573;-62
2022/04/17 07:56:57;;;;;;;;;6.00;6.00;;;;;14.22;33.19;101619.72;5091090;27;53338;-63
2022/04/17 07:59:24;;;;;;;;;6.67;6.67;;;;;14.27;33.13;101619.56;5072918;28;45472;-61
2022/04/17 08:01:50;;;;;;;;;5.67;5.67;;;;;14.31;32.90;101619.41;5057811;28;45466;-62
2022/04/17 08:04:16;;;;;;;;;5.00;5.00;;;;;14.31;33.11;101611.47;5056662;28;45411;-61
2022/04/17 08:06:41;;;;;;;;;4.33;4.33;;;;;14.33;32.91;101603.47;5056179;28;45353;-61
2022/04/17 08:09:06;;;;;;;;;8.33;7.00;;;;;14.31;32.69;101598.22;5056172;28;45412;-62
2022/04/17 08:11:32;;;;;;;;;5.33;5.33;;;;;14.36;33.02;101609.53;5056506;28;45399;-62
2022/04/17 08:13:57;;;;;;;;;7.33;7.33;;;;;14.38;33.13;101598.88;5055703;28;51964;-62
2022/04/17 08:16:23;;;;;;;;;6.00;6.00;;;;;14.46;32.70;101601.28;5055897;28;45502;-62
2022/04/17 08:18:48;;;;;;;;;5.67;5.67;;;;;14.47;32.10;101603.84;5055839;28;45533;-62
2022/04/17 08:21:16;;;;;;;;;5.00;4.33;;;;;14.47;31.76;101600.34;5055867;28;45500;-63
2022/04/17 08:23:42;;;;;;;;;7.00;6.00;;;;;14.44;31.01;101587.22;5055988;28;45656;-62
2022/04/17 08:26:07;;;;;;;;;5.67;5.00;;;;;14.46;31.88;101582.75;5055741;28;45947;-62
2022/04/17 08:28:33;;;;;;;;;5.00;5.00;;;;;14.48;31.73;101583.53;5055691;28;45489;-60
2022/04/17 08:30:58;;;;;;;;;5.67;5.67;;;;;14.51;31.31;101581.66;5054773;28;45381;-62
2022/04/17 08:33:26;;;;;;;;;4.00;4.00;;;;;14.53;31.07;101579.84;5055642;28;45628;-62
2022/04/17 08:35:53;;;;;;;;;4.33;4.33;;;;;14.54;31.06;101578.06;5055536;28;45370;-63
2022/04/17 08:38:19;;;;;;;;;4.00;4.00;;;;;14.66;31.08;101584.69;5055440;28;45454;-62
2022/04/17 08:40:45;;;;;;;;;6.00;5.00;;;;;14.70;30.53;101584.53;5055847;28;45454;-63
2022/04/17 08:43:11;;;;;;;;;8.33;6.00;;;;;14.72;30.72;101574.75;5055621;28;45497;-64
2022/04/17 08:45:37;;;;;;;;;5.00;5.00;;;;;14.74;31.33;101570.25;5055717;28;45500;-63
2022/04/17 08:48:03;;;;;;;;;6.00;6.00;;;;;14.80;30.71;101572.69;5055663;28;45423;-63
2022/04/17 08:50:30;;;;;;;;;6.00;5.00;;;;;14.88;31.29;101582.09;5055612;28;45441;-63
2022/04/17 08:52:58;;;;;;;;;5.33;3.33;;;;;14.85;30.60;101568.97;5055559;28;45404;-62
2022/04/17 08:55:24;;;;;;;;;5.67;5.00;;;;;14.91;30.83;101577.56;5067694;28;46297;-62
2022/04/17 08:57:49;;;;;;;;;4.00;4.00;;;;;14.90;31.15;101559.94;5078483;27;45474;-62
2022/04/17 09:00:17;;;;;;;;;4.00;4.00;;;;;14.99;31.12;101582.56;5061955;27;45545;-63
2022/04/17 09:02:43;;;;;;;;;3.00;3.00;;;;;15.00;29.91;101577.22;5073180;28;45480;-63
2022/04/17 09:05:11;;;;;;;;;3.67;3.67;;;;;14.98;29.26;101563.16;5078375;27;46071;-61
2022/04/17 09:07:48;;;;;;;;;4.00;4.00;;;;;15.06;28.75;101567.31;5095923;27;45405;-61
2022/04/17 09:10:30;;;;;;;;;4.00;4.00;;;;;15.10;28.58;101563.59;5096050;27;45464;-61
2022/04/17 09:12:57;;;;;;;;;3.00;3.00;;;;;15.07;28.39;101547.81;5095665;27;45494;-63
2022/04/17 09:15:29;;;;;;;;;2.67;2.67;;;;;15.13;28.05;101559.06;5094558;27;48589;-62
2022/04/17 09:17:54;;;;;;;;;4.33;4.00;;;;;15.12;28.10;101549.38;5087198;27;45479;-61
2022/04/17 09:20:22;;;;;;;;;6.33;4.00;;;;;15.13;27.92;101552.91;5075190;28;45420;-61
2022/04/17 09:22:51;;;;;;;;;3.00;3.00;;;;;15.18;27.57;101551.81;5075389;28;45598;-62
2022/04/17 09:25:16;;;;;;;;;2.67;2.67;;;;;15.25;28.03;101552.41;5075086;27;45593;-61
2022/04/17 09:28:03;;;;;;;;;4.00;4.00;;;;;15.30;28.38;101546.94;5074983;27;45367;-60
2022/04/17 09:30:38;;;;;;;;;3.00;3.00;;;;;15.34;28.27;101554.72;5075480;27;45331;-61
2022/04/17 09:33:06;;;;;;;;;4.00;4.00;;;;;15.38;27.81;101545.69;5075232;27;45445;-61
2022/04/17 09:35:31;;;;;;;;;3.67;3.00;;;;;15.42;27.86;101549.97;5075013;27;45549;-62
2022/04/17 09:37:59;;;;;;;;;5.00;4.00;;;;;15.48;27.25;101548.84;5066372;27;45399;-61
2022/04/17 09:40:26;;;;;;;;;2.00;2.00;;;;;15.50;26.40;101536.41;5055175;28;45468;-62
2022/04/17 09:43:12;;;;;;;;;4.67;3.33;;;;;15.53;27.81;101538.03;5076778;28;45420;-61
2022/04/17 09:45:59;;;;;;;;;3.33;3.33;;;;;15.61;28.31;101538.63;5064135;27;46065;-61
2022/04/17 09:48:44;;;;;;;;;4.00;4.00;;;;;15.65;27.69;101526.94;5058456;28;45430;-60
2022/04/17 09:51:26;;;;;;;;;3.33;3.33;;;;;15.68;28.52;101526.81;5076466;28;45448;-62
2022/04/17 09:53:56;;;;;;;;;5.33;4.33;;;;;15.75;27.62;101519.50;5066550;28;45570;-61
2022/04/17 09:56:31;;;;;;;;;4.33;3.00;;;;;15.79;27.91;101510.47;5066577;27;45521;-61
2022/04/17 09:58:57;;;;;;;;;4.00;4.00;;;;;15.85;27.70;101516.41;5059093;28;45445;-61
2022/04/17 10:01:22;;;;;;;;;3.00;3.00;;;;;15.90;26.84;101513.53;5064327;27;45554;-61
2022/04/17 10:03:49;;;;;;;;;2.00;2.00;;;;;15.93;25.98;101504.56;5076688;27;45574;-61
2022/04/17 10:06:15;;;;;;;;;3.33;3.33;;;;;15.95;26.59;101508.88;5073095;28;45729;-61
2022/04/17 10:08:43;;;;;;;;;2.00;2.00;;;;;15.97;27.63;101499.06;5063141;28;45792;-61
2022/04/17 10:11:08;;;;;;;;;3.00;2.00;;;;;16.07;26.96;101502.19;5087970;27;45422;-61
2022/04/17 10:13:35;;;;;;;;;2.67;2.67;;;;;16.08;26.77;101494.16;5078021;27;45576;-61
2022/04/17 10:16:04;;;;;;;;;3.67;3.67;;;;;16.17;26.68;101489.38;5059272;27;45493;-62
2022/04/17 10:18:34;;;;;;;;;3.00;3.00;;;;;16.20;26.87;101478.59;5061354;28;45667;-61
2022/04/17 10:21:00;;;;;;;;;4.33;4.33;;;;;16.20;26.09;101481.25;5075297;27;45442;-61
2022/04/17 10:23:27;;;;;;;;;8.00;7.00;;;;;16.21;26.57;101483.00;5077940;27;45335;-61
2022/04/17 10:25:56;;;;;;;;;3.33;3.00;;;;;16.20;26.36;101478.59;5077967;27;45654;-61
2022/04/17 10:28:26;;;;;;;;;2.67;2.67;;;;;16.25;27.25;101476.63;5072981;27;45508;-61
2022/04/17 10:31:03;;;;;;;;;3.00;3.00;;;;;16.27;26.77;101477.41;5060198;28;45451;-61
2022/04/17 10:34:10;;;;;;;;;5.33;3.33;;;;;16.32;26.52;101475.41;5070951;28;45492;-61
2022/04/17 10:36:44;;;;;;;;;7.33;7.33;;;;;16.33;26.26;101464.75;5078057;27;46005;-61
2022/04/17 10:39:27;;;;;;;;;3.67;3.67;;;;;16.37;26.56;101470.75;5078444;27;45464;-61
2022/04/17 10:41:53;;;;;;;;;6.33;5.33;;;;;16.35;25.19;101454.03;5078476;27;45458;-61
2022/04/17 10:44:18;;;;;;;;;4.33;4.33;;;;;16.42;25.82;101449.31;5078115;27;45558;-61
2022/04/17 10:46:51;;;;;;;;;4.67;4.00;;;;;16.47;26.09;101445.53;5059098;27;46086;-61
2022/04/17 10:49:19;;;;;;;;;5.00;4.00;;;;;16.47;26.27;101437.56;5057609;28;45459;-61
2022/04/17 10:51:53;;;;;;;;;3.00;3.00;;;;;16.56;25.64;101444.22;5057764;28;45420;-61
2022/04/17 10:54:18;;;;;;;;;3.33;3.33;;;;;16.61;26.39;101438.69;5056894;28;45553;-61
2022/04/17 10:56:53;;;;;;;;;4.33;3.33;;;;;16.63;25.46;101443.00;5057629;28;46006;-61
2022/04/17 10:59:25;;;;;;;;;3.33;3.33;;;;;16.61;25.68;101418.31;5057361;28;45409;-61
2022/04/17 11:01:53;;;;;;;;;3.00;3.00;;;;;16.66;25.90;101420.75;5077698;27;45378;-61
2022/04/17 11:04:21;;;;;;;;;7.00;7.00;;;;;16.71;25.92;101432.88;5074024;27;45500;-61
2022/04/17 11:06:52;;;;;;;;;2.00;2.00;;;;;16.74;26.02;101416.78;5056843;28;46109;-62
2022/04/17 11:09:22;;;;;;;;;3.00;3.00;;;;;16.78;26.36;101425.50;5057258;28;45402;-61
2022/04/17 11:11:48;;;;;;;;;5.00;5.00;;;;;16.80;25.79;101414.81;5057367;28;45457;-59
2022/04/17 11:14:20;;;;;;;;;3.33;3.33;;;;;16.86;25.95;101411.84;5057500;28;45556;-61
2022/04/17 11:16:50;;;;;;;;;4.33;3.00;;;;;16.92;25.86;101411.53;5056947;28;45451;-60
2022/04/17 11:19:18;;;;;;;;;3.00;3.00;;;;;16.97;26.54;101406.88;5070396;28;45577;-58
2022/04/17 11:21:46;;;;;;;;;4.67;3.67;;;;;17.02;25.68;101402.19;5077731;27;45420;-60
2022/04/17 11:24:11;;;;;;;;;3.33;3.33;;;;;17.07;24.66;101388.69;5077662;27;45417;-59
2022/04/17 11:26:55;;;;;;;;;4.67;4.67;;;;;17.12;25.46;101391.97;5077369;28;45892;-59
2022/04/17 11:29:47;;;;;;;;;4.00;4.00;;;;;17.15;26.05;101389.16;5077462;27;45513;-60
2022/04/17 11:32:16;;;;;;;;;4.67;4.67;;;;;17.20;26.36;101385.31;5077584;27;45700;-60
2022/04/17 11:34:55;;;;;;;;;5.00;4.00;;;;;17.23;25.65;101387.81;5058143;28;45429;-60